createdAt,value
2022-11-07T00:00:50.049Z,8.84
2022-11-07T00:01:51.122Z,8.85
2022-11-07T00:02:55.347Z,8.85
2022-11-07T00:03:59.522Z,8.84
2022-11-07T00:05:03.776Z,8.83
2022-11-07T00:06:07.991Z,8.84
2022-11-07T00:07:12.323Z,8.86
2022-11-07T00:08:16.475Z,8.84
2022-11-07T00:09:20.719Z,8.82
2022-11-07T00:10:25.037Z,8.81
2022-11-07T00:11:29.328Z,8.83
2022-11-07T00:12:33.505Z,8.82
2022-11-07T00:13:37.866Z,8.80
2022-11-07T00:14:42.175Z,8.79
2022-11-07T00:15:46.441Z,8.80
2022-11-07T00:16:50.626Z,8.79
2022-11-07T00:17:54.855Z,8.80
2022-11-07T00:18:59.103Z,8.82
2022-11-07T00:20:03.350Z,8.83
2022-11-07T00:21:07.615Z,8.80
2022-11-07T00:22:11.831Z,8.81
2022-11-07T00:23:16.547Z,8.82
2022-11-07T00:24:20.412Z,8.82
2022-11-07T00:25:24.582Z,8.83
2022-11-07T00:26:28.829Z,8.85
2022-11-07T00:27:33.217Z,8.83
2022-11-07T00:28:37.338Z,8.83
2022-11-07T00:29:41.586Z,8.86
2022-11-07T00:30:45.804Z,9.04
2022-11-07T00:31:50.045Z,8.84
2022-11-07T00:32:59.888Z,8.86
2022-11-07T00:33:58.525Z,8.86
2022-11-07T00:35:02.778Z,8.86
2022-11-07T00:36:07.056Z,8.87
2022-11-07T00:37:11.388Z,8.87
2022-11-07T00:38:15.576Z,8.87
2022-11-07T00:39:19.812Z,8.86
2022-11-07T00:40:24.068Z,8.85
2022-11-07T00:41:28.312Z,8.84
2022-11-07T00:42:32.627Z,8.84
2022-11-07T00:43:36.831Z,8.83
2022-11-07T00:44:41.134Z,8.82
2022-11-07T00:45:45.365Z,8.80
2022-11-07T00:46:49.590Z,8.77
2022-11-07T00:47:53.819Z,8.78
2022-11-07T00:48:58.158Z,8.79
2022-11-07T00:50:02.462Z,8.79
2022-11-07T00:51:06.732Z,8.81
2022-11-07T00:52:10.978Z,8.82
2022-11-07T00:53:15.711Z,8.81
2022-11-07T00:54:19.463Z,8.80
2022-11-07T00:55:23.714Z,8.79
2022-11-07T00:56:27.915Z,8.79
2022-11-07T00:57:32.163Z,8.79
2022-11-07T00:58:36.495Z,8.79
2022-11-07T00:59:40.590Z,8.79
2022-11-07T01:00:44.979Z,8.79
2022-11-07T01:01:49.355Z,8.80
2022-11-07T01:02:53.575Z,8.82
2022-11-07T01:03:57.734Z,8.83
2022-11-07T01:05:01.951Z,8.84
2022-11-07T01:06:06.303Z,8.86
2022-11-07T01:07:10.471Z,8.87
2022-11-07T01:08:14.784Z,8.87
2022-11-07T01:09:19.087Z,8.87
2022-11-07T01:10:23.276Z,8.87
2022-11-07T01:11:28.522Z,8.89
2022-11-07T01:12:32.356Z,8.89
2022-11-07T01:13:36.728Z,8.89
2022-11-07T01:14:40.863Z,8.88
2022-11-07T01:15:45.108Z,8.89
2022-11-07T01:16:49.344Z,8.89
2022-11-07T01:17:53.798Z,8.91
2022-11-07T01:18:57.895Z,8.90
2022-11-07T01:20:02.111Z,8.89
2022-11-07T01:21:06.260Z,8.89
2022-11-07T01:22:10.641Z,8.87
2022-11-07T01:23:15.137Z,8.87
2022-11-07T01:24:19.055Z,8.87
2022-11-07T01:25:23.377Z,8.87
2022-11-07T01:26:27.673Z,8.88
2022-11-07T01:27:31.958Z,8.88
2022-11-07T01:28:36.254Z,8.88
2022-11-07T01:29:40.432Z,8.86
2022-11-07T01:30:44.794Z,8.86
2022-11-07T01:31:48.925Z,8.86
2022-11-07T01:32:53.180Z,8.87
2022-11-07T01:33:57.429Z,8.89
2022-11-07T01:35:01.730Z,8.90
2022-11-07T01:36:06.429Z,8.89
2022-11-07T01:37:10.169Z,8.88
2022-11-07T01:38:14.433Z,8.89
2022-11-07T01:39:18.636Z,8.89
2022-11-07T01:40:22.878Z,8.89
2022-11-07T01:41:27.145Z,8.89
2022-11-07T01:42:31.378Z,8.88
2022-11-07T01:43:35.698Z,8.88
2022-11-07T01:44:39.911Z,8.88
2022-11-07T01:45:44.167Z,8.89
2022-11-07T01:46:48.525Z,8.89
2022-11-07T01:47:52.762Z,8.90
2022-11-07T01:48:56.960Z,8.89
2022-11-07T01:50:01.208Z,8.88
2022-11-07T01:51:05.477Z,8.90
2022-11-07T01:52:09.687Z,8.90
2022-11-07T01:53:14.274Z,8.90
2022-11-07T01:54:18.144Z,8.90
2022-11-07T01:55:22.387Z,8.90
2022-11-07T01:56:26.573Z,8.90
2022-11-07T01:57:30.780Z,8.90
2022-11-07T01:58:35.041Z,8.92
2022-11-07T01:59:39.354Z,8.93
2022-11-07T02:00:43.526Z,8.94
2022-11-07T02:01:47.840Z,8.95
2022-11-07T02:02:52.133Z,8.96
2022-11-07T02:03:56.211Z,8.96
2022-11-07T02:05:00.557Z,8.97
2022-11-07T02:06:04.737Z,8.97
2022-11-07T02:07:09.062Z,8.99
2022-11-07T02:08:13.170Z,8.99
2022-11-07T02:09:17.553Z,9.00
2022-11-07T02:10:21.834Z,9.02
2022-11-07T02:11:26.049Z,9.02
2022-11-07T02:12:30.278Z,9.03
2022-11-07T02:13:34.529Z,9.04
2022-11-07T02:14:38.746Z,9.05
2022-11-07T02:15:42.964Z,9.05
2022-11-07T02:16:47.283Z,9.05
2022-11-07T02:17:51.576Z,9.06
2022-11-07T02:18:55.749Z,9.08
2022-11-07T02:20:00.018Z,9.10
2022-11-07T02:21:04.232Z,9.11
2022-11-07T02:22:08.492Z,9.13
2022-11-07T02:23:13.348Z,9.12
2022-11-07T02:24:17.081Z,9.12
2022-11-07T02:25:21.263Z,9.12
2022-11-07T02:26:25.499Z,9.12
2022-11-07T02:27:29.771Z,9.14
2022-11-07T02:28:34.093Z,9.15
2022-11-07T02:29:38.356Z,9.16
2022-11-07T02:30:42.530Z,9.17
2022-11-07T02:31:46.865Z,9.17
2022-11-07T02:32:51.075Z,9.19
2022-11-07T02:33:55.299Z,9.19
2022-11-07T02:34:59.637Z,9.19
2022-11-07T02:36:03.810Z,9.20
2022-11-07T02:37:07.934Z,9.20
2022-11-07T02:38:12.180Z,9.22
2022-11-07T02:39:16.518Z,9.22
2022-11-07T02:40:20.817Z,9.22
2022-11-07T02:41:25.015Z,9.23
2022-11-07T02:42:29.246Z,9.24
2022-11-07T02:43:33.478Z,9.25
2022-11-07T02:44:37.783Z,9.27
2022-11-07T02:45:42.065Z,9.26
2022-11-07T02:46:46.358Z,9.27
2022-11-07T02:47:50.546Z,9.26
2022-11-07T02:48:54.757Z,9.28
2022-11-07T02:49:59.088Z,9.28
2022-11-07T02:51:03.270Z,9.28
2022-11-07T02:52:07.586Z,9.28
2022-11-07T02:53:12.156Z,9.29
2022-11-07T02:54:16.236Z,9.28
2022-11-07T02:55:20.381Z,9.29
2022-11-07T02:56:24.561Z,9.29
2022-11-07T02:57:28.880Z,9.29
2022-11-07T02:58:33.165Z,9.29
2022-11-07T02:59:37.447Z,9.29
2022-11-07T03:00:41.669Z,9.30
2022-11-07T03:01:46.011Z,9.30
2022-11-07T03:02:50.343Z,9.30
2022-11-07T03:03:54.374Z,9.30
2022-11-07T03:04:58.675Z,9.30
2022-11-07T03:06:02.853Z,9.30
2022-11-07T03:07:07.080Z,9.29
2022-11-07T03:08:11.473Z,9.30
2022-11-07T03:09:15.656Z,9.29
2022-11-07T03:10:20.010Z,9.28
2022-11-07T03:11:24.246Z,9.29
2022-11-07T03:12:28.424Z,9.29
2022-11-07T03:13:32.736Z,9.30
2022-11-07T03:14:36.982Z,9.31
2022-11-07T03:15:41.178Z,9.32
2022-11-07T03:16:45.431Z,9.33
2022-11-07T03:17:49.755Z,9.35
2022-11-07T03:18:53.917Z,9.35
2022-11-07T03:19:58.137Z,9.36
2022-11-07T03:21:02.387Z,9.38
2022-11-07T03:22:06.672Z,9.39
2022-11-07T03:23:11.002Z,9.41
2022-11-07T03:24:15.184Z,9.43
2022-11-07T03:25:19.485Z,9.43
2022-11-07T03:26:23.910Z,9.44
2022-11-07T03:27:28.016Z,9.45
2022-11-07T03:28:32.217Z,9.46
2022-11-07T03:29:36.466Z,9.47
2022-11-07T03:30:40.691Z,9.47
2022-11-07T03:31:45.030Z,9.49
2022-11-07T03:32:49.333Z,9.49
2022-11-07T03:33:53.604Z,9.51
2022-11-07T03:34:57.866Z,9.52
2022-11-07T03:36:02.049Z,9.53
2022-11-07T03:37:06.384Z,9.53
2022-11-07T03:38:10.585Z,9.55
2022-11-07T03:39:14.906Z,9.55
2022-11-07T03:40:19.132Z,9.56
2022-11-07T03:41:23.368Z,9.56
2022-11-07T03:42:27.603Z,9.57
2022-11-07T03:43:31.800Z,9.58
2022-11-07T03:44:36.019Z,9.59
2022-11-07T03:45:40.283Z,9.59
2022-11-07T03:46:44.556Z,9.61
2022-11-07T03:47:48.910Z,9.62
2022-11-07T03:48:53.096Z,9.63
2022-11-07T03:49:57.383Z,9.63
2022-11-07T03:51:01.648Z,9.64
2022-11-07T03:52:05.862Z,9.65
2022-11-07T03:53:10.081Z,9.65
2022-11-07T03:54:14.291Z,9.68
2022-11-07T03:55:18.652Z,9.67
2022-11-07T03:56:22.794Z,9.68
2022-11-07T03:57:27.138Z,9.69
2022-11-07T03:58:31.458Z,9.69
2022-11-07T03:59:35.596Z,9.70
2022-11-07T04:00:39.839Z,9.70
2022-11-07T04:01:44.217Z,9.70
2022-11-07T04:02:48.470Z,9.71
2022-11-07T04:03:56.106Z,9.71
2022-11-07T04:04:56.850Z,9.72
2022-11-07T04:06:01.058Z,9.73
2022-11-07T04:07:05.266Z,9.73
2022-11-07T04:08:09.532Z,9.72
2022-11-07T04:09:13.795Z,9.73
2022-11-07T04:10:18.013Z,9.75
2022-11-07T04:11:22.254Z,9.75
2022-11-07T04:12:26.477Z,9.75
2022-11-07T04:13:30.839Z,9.75
2022-11-07T04:14:35.019Z,9.77
2022-11-07T04:15:39.263Z,9.76
2022-11-07T04:16:43.476Z,9.77
2022-11-07T04:17:47.739Z,9.78
2022-11-07T04:18:51.988Z,9.79
2022-11-07T04:19:56.317Z,9.79
2022-11-07T04:21:00.508Z,9.79
2022-11-07T04:22:04.820Z,9.80
2022-11-07T04:23:08.983Z,9.80
2022-11-07T04:24:13.225Z,9.79
2022-11-07T04:25:17.540Z,9.79
2022-11-07T04:26:21.684Z,9.79
2022-11-07T04:27:25.920Z,9.79
2022-11-07T04:28:30.282Z,9.79
2022-11-07T04:29:34.469Z,9.80
2022-11-07T04:30:38.830Z,9.81
2022-11-07T04:31:42.957Z,9.80
2022-11-07T04:32:47.189Z,9.80
2022-11-07T04:33:51.509Z,9.80
2022-11-07T04:34:55.693Z,9.80
2022-11-07T04:35:59.912Z,9.81
2022-11-07T04:37:04.191Z,9.82
2022-11-07T04:38:08.421Z,9.82
2022-11-07T04:39:12.646Z,9.82
2022-11-07T04:40:16.865Z,9.83
2022-11-07T04:41:21.117Z,9.84
2022-11-07T04:42:25.356Z,9.84
2022-11-07T04:43:29.570Z,9.85
2022-11-07T04:44:33.799Z,9.84
2022-11-07T04:45:38.136Z,9.85
2022-11-07T04:46:42.334Z,9.86
2022-11-07T04:47:46.564Z,9.86
2022-11-07T04:48:50.874Z,9.86
2022-11-07T04:49:55.091Z,9.88
2022-11-07T04:50:59.324Z,9.88
2022-11-07T04:52:03.525Z,9.88
2022-11-07T04:53:07.878Z,9.89
2022-11-07T04:54:12.022Z,9.89
2022-11-07T04:55:16.133Z,9.89
2022-11-07T04:56:20.414Z,9.90
2022-11-07T04:57:24.746Z,9.91
2022-11-07T04:58:28.957Z,9.92
2022-11-07T04:59:33.319Z,9.92
2022-11-07T05:00:37.491Z,9.92
2022-11-07T05:01:41.944Z,9.93
2022-11-07T05:02:46.137Z,9.93
2022-11-07T05:03:50.251Z,9.94
2022-11-07T05:04:54.479Z,9.95
2022-11-07T05:05:58.704Z,9.95
2022-11-07T05:07:02.932Z,9.95
2022-11-07T05:08:07.273Z,9.95
2022-11-07T05:09:11.550Z,9.97
2022-11-07T05:10:15.782Z,9.96
2022-11-07T05:11:20.019Z,9.97
2022-11-07T05:12:24.141Z,9.97
2022-11-07T05:13:28.349Z,9.99
2022-11-07T05:14:32.727Z,9.99
2022-11-07T05:15:36.893Z,10.00
2022-11-07T05:16:41.121Z,9.99
2022-11-07T05:17:45.451Z,9.99
2022-11-07T05:18:49.764Z,9.98
2022-11-07T05:19:53.902Z,9.98
2022-11-07T05:20:58.111Z,9.98
2022-11-07T05:22:02.350Z,9.98
2022-11-07T05:23:06.560Z,9.98
2022-11-07T05:24:10.805Z,9.97
2022-11-07T05:25:15.123Z,9.97
2022-11-07T05:26:19.367Z,9.97
2022-11-07T05:27:23.546Z,9.97
2022-11-07T05:28:33.997Z,9.97
2022-11-07T05:29:32.188Z,9.96
2022-11-07T05:30:36.383Z,9.97
2022-11-07T05:31:40.637Z,9.97
2022-11-07T05:32:44.877Z,9.96
2022-11-07T05:33:49.112Z,9.97
2022-11-07T05:34:53.376Z,9.98
2022-11-07T05:35:57.657Z,9.98
2022-11-07T05:37:01.846Z,9.99
2022-11-07T05:38:06.098Z,10.00
2022-11-07T05:39:10.449Z,10.02
2022-11-07T05:40:14.634Z,10.02
2022-11-07T05:41:18.914Z,10.05
2022-11-07T05:42:23.121Z,10.06
2022-11-07T05:43:27.391Z,10.06
2022-11-07T05:44:31.639Z,10.08
2022-11-07T05:45:35.889Z,10.09
2022-11-07T05:46:40.162Z,10.10
2022-11-07T05:47:44.353Z,10.11
2022-11-07T05:48:48.609Z,10.11
2022-11-07T05:49:52.935Z,10.12
2022-11-07T05:50:57.147Z,10.14
2022-11-07T05:52:01.337Z,10.15
2022-11-07T05:53:05.655Z,10.17
2022-11-07T05:54:09.936Z,10.18
2022-11-07T05:55:14.118Z,10.18
2022-11-07T05:56:18.380Z,10.19
2022-11-07T05:57:22.610Z,10.21
2022-11-07T05:58:26.923Z,10.21
2022-11-07T05:59:31.192Z,10.22
2022-11-07T06:00:35.382Z,10.23
2022-11-07T06:01:39.678Z,10.23
2022-11-07T06:02:43.921Z,10.25
2022-11-07T06:03:48.118Z,10.26
2022-11-07T06:04:52.310Z,10.27
2022-11-07T06:05:56.657Z,10.26
2022-11-07T06:07:00.937Z,10.27
2022-11-07T06:08:04.968Z,10.28
2022-11-07T06:09:09.373Z,10.30
2022-11-07T06:10:13.675Z,10.30
2022-11-07T06:11:17.896Z,10.31
2022-11-07T06:12:22.233Z,10.33
2022-11-07T06:13:26.511Z,10.33
2022-11-07T06:14:30.715Z,10.34
2022-11-07T06:15:35.040Z,10.35
2022-11-07T06:16:39.196Z,10.37
2022-11-07T06:17:43.305Z,10.38
2022-11-07T06:18:47.721Z,10.39
2022-11-07T06:19:51.901Z,10.38
2022-11-07T06:20:56.236Z,10.39
2022-11-07T06:22:00.437Z,10.38
2022-11-07T06:23:04.770Z,10.40
2022-11-07T06:24:14.854Z,10.40
2022-11-07T06:25:13.139Z,10.39
2022-11-07T06:26:17.407Z,10.38
2022-11-07T06:27:21.675Z,10.38
2022-11-07T06:28:25.854Z,10.39
2022-11-07T06:29:30.060Z,10.40
2022-11-07T06:30:34.391Z,10.41
2022-11-07T06:31:38.679Z,10.41
2022-11-07T06:32:42.855Z,10.42
2022-11-07T06:33:47.115Z,10.42
2022-11-07T06:34:51.341Z,10.43
2022-11-07T06:35:55.696Z,10.44
2022-11-07T06:37:03.108Z,10.45
2022-11-07T06:38:04.132Z,10.45
2022-11-07T06:39:08.412Z,10.46
2022-11-07T06:40:12.705Z,10.47
2022-11-07T06:41:16.991Z,10.48
2022-11-07T06:42:21.176Z,10.48
2022-11-07T06:43:26.815Z,10.48
2022-11-07T06:44:29.724Z,10.48
2022-11-07T06:45:33.933Z,10.49
2022-11-07T06:46:38.196Z,10.52
2022-11-07T06:47:42.456Z,10.52
2022-11-07T06:48:46.637Z,10.53
2022-11-07T06:49:50.945Z,10.55
2022-11-07T06:50:55.170Z,10.56
2022-11-07T06:51:59.482Z,10.58
2022-11-07T06:53:03.694Z,10.58
2022-11-07T06:54:07.977Z,10.58
2022-11-07T06:55:12.409Z,10.59
2022-11-07T06:56:16.579Z,10.59
2022-11-07T06:57:20.896Z,10.60
2022-11-07T06:58:25.087Z,10.61
2022-11-07T06:59:29.337Z,10.61
2022-11-07T07:00:33.626Z,10.61
2022-11-07T07:01:38.089Z,10.62
2022-11-07T07:02:57.942Z,10.62
2022-11-07T07:03:46.325Z,10.63
2022-11-07T07:04:50.564Z,10.64
2022-11-07T07:05:54.791Z,10.63
2022-11-07T07:06:59.009Z,10.64
2022-11-07T07:08:03.271Z,10.65
2022-11-07T07:09:07.482Z,10.65
2022-11-07T07:10:11.778Z,10.66
2022-11-07T07:11:16.131Z,10.67
2022-11-07T07:12:20.397Z,10.68
2022-11-07T07:13:24.576Z,10.69
2022-11-07T07:14:28.862Z,10.70
2022-11-07T07:15:47.804Z,10.70
2022-11-07T07:16:37.308Z,10.71
2022-11-07T07:17:41.555Z,10.71
2022-11-07T07:18:45.782Z,10.72
2022-11-07T07:19:50.055Z,10.72
2022-11-07T07:20:54.290Z,10.74
2022-11-07T07:21:58.490Z,10.73
2022-11-07T07:23:05.706Z,10.75
2022-11-07T07:24:07.056Z,10.74
2022-11-07T07:25:11.397Z,10.75
2022-11-07T07:26:15.583Z,10.76
2022-11-07T07:27:19.954Z,10.76
2022-11-07T07:28:24.093Z,10.78
2022-11-07T07:29:28.319Z,10.77
2022-11-07T07:30:32.654Z,10.79
2022-11-07T07:31:36.963Z,10.79
2022-11-07T07:32:41.162Z,10.80
2022-11-07T07:33:45.439Z,10.81
2022-11-07T07:34:49.778Z,10.82
2022-11-07T07:35:53.972Z,10.83
2022-11-07T07:36:58.216Z,10.85
2022-11-07T07:38:02.562Z,10.85
2022-11-07T07:39:06.738Z,10.86
2022-11-07T07:40:11.077Z,10.85
2022-11-07T07:41:15.286Z,10.85
2022-11-07T07:42:19.479Z,10.85
2022-11-07T07:43:23.859Z,10.85
2022-11-07T07:44:28.076Z,10.84
2022-11-07T07:45:32.279Z,10.85
2022-11-07T07:46:36.619Z,10.85
2022-11-07T07:47:40.821Z,10.85
2022-11-07T07:48:45.130Z,10.84
2022-11-07T07:49:49.300Z,10.84
2022-11-07T07:50:53.647Z,10.84
2022-11-07T07:51:57.804Z,10.84
2022-11-07T07:53:07.784Z,10.85
2022-11-07T07:54:06.305Z,10.85
2022-11-07T07:55:10.548Z,10.87
2022-11-07T07:56:14.889Z,10.88
2022-11-07T07:57:19.068Z,10.90
2022-11-07T07:58:23.319Z,10.90
2022-11-07T07:59:27.669Z,10.91
2022-11-07T08:00:31.911Z,10.93
2022-11-07T08:01:36.355Z,10.94
2022-11-07T08:02:40.508Z,10.95
2022-11-07T08:04:00.807Z,10.97
2022-11-07T08:04:48.872Z,10.98
2022-11-07T08:05:53.136Z,10.97
2022-11-07T08:06:57.398Z,10.99
2022-11-07T08:08:01.629Z,11.00
2022-11-07T08:09:05.884Z,11.00
2022-11-07T08:10:39.800Z,11.01
2022-11-07T08:11:14.370Z,11.02
2022-11-07T08:12:18.608Z,11.02
2022-11-07T08:13:22.829Z,11.04
2022-11-07T08:14:27.078Z,11.04
2022-11-07T08:15:31.441Z,11.06
2022-11-07T08:16:35.540Z,11.07
2022-11-07T08:17:39.887Z,11.08
2022-11-07T08:18:44.106Z,11.09
2022-11-07T08:19:48.425Z,11.10
2022-11-07T08:20:52.688Z,11.12
2022-11-07T08:21:56.863Z,11.13
2022-11-07T08:23:01.117Z,11.13
2022-11-07T08:24:05.396Z,11.14
2022-11-07T08:25:09.745Z,11.14
2022-11-07T08:26:14.025Z,11.15
2022-11-07T08:27:18.223Z,11.16
2022-11-07T08:28:22.460Z,11.17
2022-11-07T08:29:26.708Z,11.17
2022-11-07T08:30:30.969Z,11.17
2022-11-07T08:31:35.244Z,11.17
2022-11-07T08:32:39.461Z,11.18
2022-11-07T08:33:43.748Z,11.19
2022-11-07T08:34:47.942Z,11.19
2022-11-07T08:35:52.294Z,11.20
2022-11-07T08:38:23.841Z,11.21
2022-11-07T08:39:28.034Z,11.23
2022-11-07T08:40:32.230Z,11.25
2022-11-07T08:41:36.449Z,11.28
2022-11-07T08:42:40.674Z,11.29
2022-11-07T08:43:44.900Z,11.32
2022-11-07T08:44:49.174Z,11.34
2022-11-07T08:45:53.454Z,11.35
2022-11-07T08:46:57.686Z,11.37
2022-11-07T08:48:02.013Z,11.38
2022-11-07T08:49:06.296Z,11.39
2022-11-07T08:50:10.512Z,11.42
2022-11-07T08:51:14.814Z,11.43
2022-11-07T08:52:19.114Z,11.44
2022-11-07T08:53:23.410Z,11.44
2022-11-07T08:54:27.617Z,11.46
2022-11-07T08:55:31.867Z,11.47
2022-11-07T08:56:36.213Z,11.50
2022-11-07T08:57:40.411Z,11.51
2022-11-07T08:58:44.649Z,11.53
2022-11-07T08:59:48.859Z,11.54
2022-11-07T09:00:53.209Z,11.56
2022-11-07T09:02:38.933Z,11.56
2022-11-07T09:03:38.667Z,11.58
2022-11-07T09:04:06.087Z,11.61
2022-11-07T09:05:10.169Z,11.60
2022-11-07T09:06:14.423Z,11.62
2022-11-07T09:07:18.658Z,11.64
2022-11-07T09:08:23.014Z,11.66
2022-11-07T09:09:27.215Z,11.69
2022-11-07T09:10:31.419Z,11.72
2022-11-07T09:11:35.607Z,11.74
2022-11-07T09:12:39.839Z,11.75
2022-11-07T09:13:44.175Z,11.77
2022-11-07T09:14:48.485Z,11.79
2022-11-07T09:15:52.691Z,11.79
2022-11-07T09:16:57.020Z,11.81
2022-11-07T09:18:01.226Z,11.83
2022-11-07T09:19:05.447Z,11.85
2022-11-07T09:20:09.665Z,11.87
2022-11-07T09:21:19.129Z,11.90
2022-11-07T09:22:18.285Z,11.93
2022-11-07T09:23:22.564Z,11.93
2022-11-07T09:24:26.925Z,11.95
2022-11-07T09:25:31.216Z,11.95
2022-11-07T09:26:35.419Z,11.95
2022-11-07T09:27:39.736Z,11.97
2022-11-07T09:28:49.865Z,11.99
2022-11-07T09:29:48.210Z,12.00
2022-11-07T09:30:52.473Z,12.01
2022-11-07T09:31:56.754Z,12.03
2022-11-07T09:33:01.091Z,12.04
2022-11-07T09:34:05.283Z,12.04
2022-11-07T09:35:09.576Z,12.06
2022-11-07T09:36:13.791Z,12.07
2022-11-07T09:37:18.140Z,12.09
2022-11-07T09:38:22.378Z,12.10
2022-11-07T09:39:26.630Z,12.11
2022-11-07T09:40:30.919Z,12.13
2022-11-07T09:41:35.215Z,12.16
2022-11-07T09:42:39.408Z,12.18
2022-11-07T09:43:43.744Z,12.20
2022-11-07T09:44:48.051Z,12.22
2022-11-07T09:45:52.263Z,12.25
2022-11-07T09:46:56.500Z,12.26
2022-11-07T09:48:00.769Z,12.28
2022-11-07T09:49:05.159Z,12.29
2022-11-07T09:50:09.386Z,12.30
2022-11-07T09:51:13.653Z,12.32
2022-11-07T09:52:17.870Z,12.32
2022-11-07T09:53:22.205Z,12.35
2022-11-07T09:54:26.438Z,12.37
2022-11-07T09:55:30.697Z,12.36
2022-11-07T09:56:35.082Z,12.38
2022-11-07T09:57:39.295Z,12.40
2022-11-07T09:58:43.669Z,12.42
2022-11-07T09:59:47.954Z,12.44
2022-11-07T10:00:52.264Z,12.48
2022-11-07T10:01:56.547Z,12.50
2022-11-07T10:03:00.885Z,12.53
2022-11-07T10:04:24.327Z,12.55
2022-11-07T10:05:09.490Z,12.56
2022-11-07T10:06:13.644Z,12.58
2022-11-07T10:07:17.965Z,12.59
2022-11-07T10:08:22.309Z,12.61
2022-11-07T10:09:26.539Z,12.58
2022-11-07T10:10:30.894Z,12.56
2022-11-07T10:11:35.106Z,12.56
2022-11-07T10:12:44.280Z,12.58
2022-11-07T10:13:43.681Z,12.59
2022-11-07T10:14:47.944Z,12.62
2022-11-07T10:15:52.349Z,12.63
2022-11-07T10:16:56.579Z,12.64
2022-11-07T10:18:00.863Z,12.65
2022-11-07T10:19:05.103Z,12.68
2022-11-07T10:20:09.398Z,12.71
2022-11-07T10:21:37.157Z,12.75
2022-11-07T10:22:17.958Z,12.77
2022-11-07T10:23:22.218Z,12.81
2022-11-07T10:24:26.452Z,12.86
2022-11-07T10:25:30.717Z,12.90
2022-11-07T10:26:35.072Z,12.95
2022-11-07T10:27:39.353Z,12.96
2022-11-07T10:28:43.577Z,12.96
2022-11-07T10:29:47.979Z,12.95
2022-11-07T10:30:52.200Z,12.95
2022-11-07T10:31:56.469Z,12.94
2022-11-07T10:33:00.752Z,12.94
2022-11-07T10:34:05.016Z,12.92
2022-11-07T10:35:09.377Z,12.95
2022-11-07T10:36:13.729Z,12.95
2022-11-07T10:37:18.035Z,12.94
2022-11-07T10:38:22.305Z,12.91
2022-11-07T10:39:26.598Z,12.89
2022-11-07T10:40:31.030Z,12.88
2022-11-07T10:41:35.257Z,12.88
2022-11-07T10:42:39.593Z,12.85
2022-11-07T10:43:43.899Z,12.83
2022-11-07T10:44:48.121Z,12.82
2022-11-07T10:45:52.519Z,12.81
2022-11-07T10:46:56.747Z,12.81
2022-11-07T10:48:01.098Z,12.83
2022-11-07T10:49:05.312Z,12.85
2022-11-07T10:50:09.688Z,12.89
2022-11-07T10:51:14.040Z,12.92
2022-11-07T10:52:18.292Z,12.99
2022-11-07T10:53:22.660Z,13.06
2022-11-07T10:54:26.906Z,13.12
2022-11-07T10:55:31.109Z,13.15
2022-11-07T10:56:35.616Z,13.16
2022-11-07T10:57:40.701Z,13.17
2022-11-07T10:58:44.753Z,13.17
2022-11-07T10:59:48.872Z,13.16
2022-11-07T11:00:53.300Z,13.15
2022-11-07T11:01:57.569Z,13.13
2022-11-07T11:03:01.861Z,13.11
2022-11-07T11:04:06.193Z,13.08
2022-11-07T11:05:10.497Z,13.05
2022-11-07T11:06:14.738Z,13.00
2022-11-07T11:07:21.877Z,12.91
2022-11-07T11:08:23.308Z,12.86
2022-11-07T11:09:27.667Z,12.82
2022-11-07T11:10:31.895Z,12.75
2022-11-07T11:11:39.232Z,12.71
2022-11-07T11:12:42.574Z,12.68
2022-11-07T11:13:46.875Z,12.64
2022-11-07T11:14:51.156Z,12.63
2022-11-07T11:15:55.399Z,12.61
2022-11-07T11:16:59.710Z,12.60
2022-11-07T11:18:03.943Z,12.56
2022-11-07T11:19:08.233Z,12.53
2022-11-07T11:20:12.533Z,12.51
2022-11-07T11:21:16.840Z,12.50
2022-11-07T11:22:21.159Z,12.49
2022-11-07T11:23:25.441Z,12.49
2022-11-07T11:24:29.722Z,12.49
2022-11-07T11:25:34.007Z,12.48
2022-11-07T11:26:38.269Z,12.48
2022-11-07T11:27:42.563Z,12.48
2022-11-07T11:28:46.872Z,12.50
2022-11-07T11:29:51.198Z,12.51
2022-11-07T11:30:55.434Z,12.53
2022-11-07T11:31:59.787Z,12.55
2022-11-07T11:33:04.160Z,12.56
2022-11-07T11:34:08.425Z,12.58
2022-11-07T11:35:12.689Z,12.59
2022-11-07T11:36:17.069Z,12.59
2022-11-07T11:37:21.286Z,12.59
2022-11-07T11:38:25.598Z,12.61
2022-11-07T11:39:29.941Z,12.61
2022-11-07T11:40:34.230Z,12.61
2022-11-07T11:41:38.507Z,12.62
2022-11-07T11:42:42.773Z,12.62
2022-11-07T11:43:47.073Z,12.65
2022-11-07T11:44:51.294Z,12.67
2022-11-07T11:45:55.647Z,12.68
2022-11-07T11:46:59.896Z,12.70
2022-11-07T11:48:04.160Z,12.72
2022-11-07T11:49:14.041Z,12.75
2022-11-07T11:50:17.038Z,12.77
2022-11-07T11:51:21.287Z,12.80
2022-11-07T11:52:25.640Z,12.81
2022-11-07T11:53:29.855Z,12.83
2022-11-07T11:54:34.204Z,12.84
2022-11-07T11:55:38.476Z,12.85
2022-11-07T11:56:42.724Z,12.85
2022-11-07T11:57:47.072Z,12.85
2022-11-07T11:58:51.345Z,12.81
2022-11-07T11:59:55.588Z,12.80
2022-11-07T12:00:59.984Z,12.78
2022-11-07T12:02:04.423Z,12.78
2022-11-07T12:03:08.587Z,12.77
2022-11-07T12:04:12.857Z,12.77
2022-11-07T12:05:17.143Z,12.79
2022-11-07T12:06:21.515Z,12.79
2022-11-07T12:07:25.878Z,12.80
2022-11-07T12:08:30.210Z,12.81
2022-11-07T12:09:34.487Z,12.79
2022-11-07T12:10:38.786Z,12.77
2022-11-07T12:11:43.165Z,12.75
2022-11-07T12:12:47.349Z,12.75
2022-11-07T12:13:51.747Z,12.74
2022-11-07T12:14:57.651Z,12.74
2022-11-07T12:16:00.311Z,12.73
2022-11-07T12:17:04.621Z,12.71
2022-11-07T12:18:08.873Z,12.71
2022-11-07T12:19:13.257Z,12.70
2022-11-07T12:20:17.450Z,12.70
2022-11-07T12:21:21.797Z,12.71
2022-11-07T12:22:26.110Z,12.72
2022-11-07T12:23:30.370Z,12.73
2022-11-07T12:24:34.641Z,12.74
2022-11-07T12:25:41.903Z,12.74
2022-11-07T12:26:45.288Z,12.74
2022-11-07T12:27:49.681Z,12.74
2022-11-07T12:28:54.046Z,12.76
2022-11-07T12:29:58.570Z,12.76
2022-11-07T12:31:02.693Z,12.77
2022-11-07T12:32:06.954Z,12.78
2022-11-07T12:33:11.209Z,12.79
2022-11-07T12:34:15.491Z,12.81
2022-11-07T12:35:20.832Z,12.82
2022-11-07T12:36:24.754Z,12.83
2022-11-07T12:37:28.966Z,12.83
2022-11-07T12:38:33.249Z,12.83
2022-11-07T12:39:37.623Z,12.83
2022-11-07T12:40:41.876Z,12.83
2022-11-07T12:41:46.209Z,12.84
2022-11-07T12:42:50.434Z,12.83
2022-11-07T12:43:54.700Z,12.83
2022-11-07T12:44:58.958Z,12.83
2022-11-07T12:46:03.404Z,12.83
2022-11-07T12:47:07.614Z,12.83
2022-11-07T12:48:13.413Z,12.84
2022-11-07T12:49:16.213Z,12.82
2022-11-07T12:50:20.484Z,12.82
2022-11-07T12:51:24.747Z,12.82
2022-11-07T12:52:29.100Z,12.82
2022-11-07T12:53:33.402Z,12.83
2022-11-07T12:54:37.685Z,12.85
2022-11-07T12:55:42.055Z,12.84
2022-11-07T12:56:46.265Z,12.84
2022-11-07T12:57:50.492Z,12.85
2022-11-07T12:58:54.798Z,12.86
2022-11-07T12:59:59.150Z,12.87
2022-11-07T13:01:03.483Z,12.88
2022-11-07T13:02:07.993Z,12.89
2022-11-07T13:03:12.094Z,12.91
2022-11-07T13:04:16.297Z,12.92
2022-11-07T13:05:20.682Z,12.92
2022-11-07T13:06:24.877Z,12.91
2022-11-07T13:07:29.142Z,12.92
2022-11-07T13:08:35.073Z,12.93
2022-11-07T13:09:37.819Z,12.94
2022-11-07T13:10:42.151Z,12.94
2022-11-07T13:11:46.421Z,12.93
2022-11-07T13:12:50.775Z,12.92
2022-11-07T13:13:54.959Z,12.94
2022-11-07T13:14:59.339Z,12.94
2022-11-07T13:16:19.075Z,12.93
2022-11-07T13:17:07.925Z,12.94
2022-11-07T13:18:12.198Z,12.96
2022-11-07T13:19:16.516Z,12.96
2022-11-07T13:20:20.852Z,12.97
2022-11-07T13:21:25.076Z,12.96
2022-11-07T13:22:29.317Z,12.97
2022-11-07T13:23:33.694Z,12.96
2022-11-07T13:24:37.949Z,12.95
2022-11-07T13:25:45.290Z,12.97
2022-11-07T13:26:48.629Z,12.96
2022-11-07T13:27:52.840Z,12.97
2022-11-07T13:28:57.198Z,12.96
2022-11-07T13:30:01.459Z,12.95
2022-11-07T13:31:07.951Z,12.93
2022-11-07T13:32:10.077Z,12.94
2022-11-07T13:33:14.720Z,12.94
2022-11-07T13:34:18.577Z,12.93
2022-11-07T13:35:22.930Z,12.93
2022-11-07T13:36:27.154Z,12.92
2022-11-07T13:37:31.516Z,12.93
2022-11-07T13:38:35.867Z,12.94
2022-11-07T13:39:40.103Z,12.93
2022-11-07T13:40:47.374Z,12.93
2022-11-07T13:41:50.686Z,12.92
2022-11-07T13:42:54.938Z,12.92
2022-11-07T13:43:59.194Z,12.93
2022-11-07T13:45:03.483Z,12.91
2022-11-07T13:46:07.838Z,12.90
2022-11-07T13:47:12.069Z,12.90
2022-11-07T13:48:16.322Z,12.91
2022-11-07T13:49:20.654Z,12.90
2022-11-07T13:50:24.913Z,12.90
2022-11-07T13:51:29.303Z,12.90
2022-11-07T13:52:33.527Z,12.89
2022-11-07T13:53:37.794Z,12.89
2022-11-07T13:54:42.162Z,12.90
2022-11-07T13:55:46.370Z,12.89
2022-11-07T13:56:50.668Z,12.89
2022-11-07T13:57:54.945Z,12.89
2022-11-07T13:58:59.322Z,12.89
2022-11-07T14:00:03.687Z,12.89